No2 Toyomaru — JD2874 — position and weather

sailwx.info

Track history (hours):
 
Tides and Currents Weather Stations Pressure Air Temp Water Temp Dewpoint Dewpoint Depression Visibility Wind Speed Wind Dir Waves Ship Positions

No2 Toyomaru

Last reported at 2018-Jul-20 11:48 UTC. Time now 2018-Jul-20 14:06 UTC.
Position N 34°54' E 139°24'.

Length 124 m; draft 6.5 m.

Type: Cargo ship. MMSI: 431000859.

Date/timePositionNaut miles runAvg speedWind from/ knotsBaromVisibWave heightAir tempDewpointWater temp
2018-Jul-20 11:48N 34°54' E 139°24'414.8
2018-Jul-20 11:30N 34°56' E 139°28'815.7
2018-Jul-20 11:00N 35°01' E 139°35'917.1
2018-Jul-20 10:30N 35°07' E 139°43'714.7
2018-Jul-20 10:00N 35°14' E 139°46'612.9
2018-Jul-20 09:31N 35°20' E 139°43'714.3
2018-Jul-20 09:00N 35°26' E 139°46'816.2
2018-Jul-20 08:30N 35°31' E 139°54'915.8
2018-Jul-20 07:57N 35°35' E 140°04'2 1.1
2018-Jul-20 06:12N 35°36' E 140°06'1 0.1
2018-Jul-19 22:58N 35°36' E 140°05'1 0.3
2018-Jul-19 20:23N 35°36' E 140°06'410.3
2018-Jul-19 19:58N 35°34' E 140°01'817.4
2018-Jul-19 19:30N 35°30' E 139°53'815.9
2018-Jul-19 19:00N 35°24' E 139°46'612.0
2018-Jul-19 18:30N 35°18' E 139°45'612.2
2018-Jul-19 18:01N 35°12' E 139°47'917.3
2018-Jul-19 17:31N 35°05' E 139°41'918.3
2018-Jul-19 17:01N 34°58' E 139°34'23010.1
2018-Jul-18 18:06N 33°43' E 135°10'217.7
2018-Jul-18 17:58N 33°44' E 135°08'817.6
2018-Jul-18 17:30N 33°50' E 135°02'917.6
2018-Jul-18 17:01N 33°57' E 134°55'917.8
2018-Jul-18 16:31N 34°04' E 134°48'917.5
2018-Jul-18 16:00N 34°11' E 134°42'817.0
2018-Jul-18 15:30N 34°17' E 134°34'917.3
2018-Jul-18 15:00N 34°21' E 134°25'  
2018-Jul-16 05:23N 34°24' E 133°55'1413.9
2018-Jul-16 04:21N 34°25' E 134°13'617.3
2018-Jul-16 04:01N 34°22' E 134°19'917.7
2018-Jul-16 03:31N 34°19' E 134°29'1316.4
2018-Jul-16 02:44N 34°12' E 134°42'416.8
2018-Jul-16 02:29N 34°09' E 134°45'817.6
2018-Jul-16 02:00N 34°02' E 134°51'917.4
2018-Jul-16 01:30N 33°55' E 134°58'1417.9
2018-Jul-16 00:42N 33°45' E 135°09'22315.7
2018-Jul-15 10:32N 34°54' E 139°25'115.1
2018-Jul-15 10:30N 34°55' E 139°26'714.7
2018-Jul-15 10:00N 34°60' E 139°32'816.3
2018-Jul-15 09:30N 35°05' E 139°40'816.0
2018-Jul-15 09:00N 35°11' E 139°45'612.3
2018-Jul-15 08:30N 35°18' E 139°44'713.9
2018-Jul-15 08:01N 35°24' E 139°43'815.9
2018-Jul-15 07:30N 35°29' E 139°51'816.1
2018-Jul-15 06:59N 35°34' E 139°59'612.6
2018-Jul-15 06:30N 35°36' E 140°06'0 0.1
2018-Jul-15 05:54N 35°36' E 140°06'0 1.1
2018-Jul-15 05:30N 35°35' E 140°06'1 0.2
2018-Jul-14 23:10N 35°37' E 140°05'1 0.1
2018-Jul-14 11:26N 35°36' E 140°06'512.1
2018-Jul-14 11:00N 35°33' E 140°00'917.2
2018-Jul-14 10:30N 35°28' E 139°52'715.0
2018-Jul-14 10:00N 35°23' E 139°46'611.8
2018-Jul-14 09:30N 35°17' E 139°46'713.9
2018-Jul-14 09:00N 35°10' E 139°46'918.1
2018-Jul-14 08:30N 35°03' E 139°40'1019.7
2018-Jul-14 08:00N 34°56' E 139°30'4119.3
2018-Jul-14 05:52N 34°31' E 138°51'18716.4
2018-Jul-13 18:24N 33°37' E 135°14'717.6
2018-Jul-13 18:00N 33°42' E 135°09'918.4
2018-Jul-13 17:30N 33°49' E 135°01'918.1
2018-Jul-13 17:00N 33°56' E 134°55'918.0
2018-Jul-13 16:30N 34°04' E 134°49'918.5
2018-Jul-13 16:00N 34°11' E 134°42'918.7
2018-Jul-13 15:30N 34°17' E 134°33'918.2
2018-Jul-13 15:01N 34°21' E 134°23'917.2
2018-Jul-13 14:31N 34°24' E 134°14'1 0.0
2018-Jul-12 05:31N 34°24' E 134°14'015.0
2018-Jul-12 05:31N 34°24' E 134°14'816.6
2018-Jul-12 05:01N 34°21' E 134°23'917.4
2018-Jul-12 04:30N 34°17' E 134°33'815.5
2018-Jul-12 04:00N 34°13' E 134°41'913.7
2018-Jul-12 03:22N 34°06' E 134°47'617.3
2018-Jul-12 03:00N 34°01' E 134°52'917.1
2018-Jul-12 02:30N 33°54' E 134°58'816.5
2018-Jul-12 02:00N 33°48' E 135°05'22215.8
2018-Jul-11 11:56N 34°52' E 139°22'614.7
2018-Jul-11 11:30N 34°56' E 139°28'815.6
2018-Jul-11 11:00N 35°01' E 139°36'917.7
2018-Jul-11 10:30N 35°07' E 139°43'815.9
2018-Jul-11 10:00N 35°14' E 139°46'612.8
2018-Jul-11 09:31N 35°20' E 139°43'815.8
2018-Jul-11 09:01N 35°27' E 139°47'917.6
2018-Jul-11 08:31N 35°32' E 139°56'9 4.3
2018-Jul-11 06:27N 35°36' E 140°06'0 0.0
2018-Jul-10 20:24N 35°36' E 140°06'411.3
2018-Jul-10 20:00N 35°34' E 140°01'917.2
2018-Jul-10 19:30N 35°29' E 139°53'815.3
2018-Jul-10 19:00N 35°23' E 139°46'611.5
2018-Jul-10 18:30N 35°18' E 139°45'612.2
2018-Jul-10 18:00N 35°12' E 139°47'917.4
2018-Jul-10 17:30N 35°03' E 139°44'917.7
2018-Jul-10 17:00N 34°57' E 139°37'1120.9
2018-Jul-10 16:30N 34°53' E 139°25'  
Track history (hours):
 
Tides and Currents Weather Stations Pressure Air Temp Water Temp Dewpoint Dewpoint Depression Visibility Wind Speed Wind Dir Waves Ship Positions

No2 Toyomaru

Last reported at 2018-Jul-20 11:48 UTC. Time now 2018-Jul-20 14:06 UTC.
Position N 34°54' E 139°24'.

Length 124 m; draft 6.5 m.

Type: Cargo ship. MMSI: 431000859.

Date/timePositionNaut miles runAvg speedWind from/ knotsBaromVisibWave heightAir tempDewpointWater temp
2018-Jul-20 11:48N 34°54' E 139°24'414.8
2018-Jul-20 11:30N 34°56' E 139°28'815.7
2018-Jul-20 11:00N 35°01' E 139°35'917.1
2018-Jul-20 10:30N 35°07' E 139°43'714.7
2018-Jul-20 10:00N 35°14' E 139°46'612.9
2018-Jul-20 09:31N 35°20' E 139°43'714.3
2018-Jul-20 09:00N 35°26' E 139°46'816.2
2018-Jul-20 08:30N 35°31' E 139°54'915.8
2018-Jul-20 07:57N 35°35' E 140°04'2 1.1
2018-Jul-20 06:12N 35°36' E 140°06'1 0.1
2018-Jul-19 22:58N 35°36' E 140°05'1 0.3
2018-Jul-19 20:23N 35°36' E 140°06'410.3
2018-Jul-19 19:58N 35°34' E 140°01'817.4
2018-Jul-19 19:30N 35°30' E 139°53'815.9
2018-Jul-19 19:00N 35°24' E 139°46'612.0
2018-Jul-19 18:30N 35°18' E 139°45'612.2
2018-Jul-19 18:01N 35°12' E 139°47'917.3
2018-Jul-19 17:31N 35°05' E 139°41'918.3
2018-Jul-19 17:01N 34°58' E 139°34'23010.1
2018-Jul-18 18:06N 33°43' E 135°10'217.7
2018-Jul-18 17:58N 33°44' E 135°08'817.6
2018-Jul-18 17:30N 33°50' E 135°02'917.6
2018-Jul-18 17:01N 33°57' E 134°55'917.8
2018-Jul-18 16:31N 34°04' E 134°48'917.5
2018-Jul-18 16:00N 34°11' E 134°42'817.0
2018-Jul-18 15:30N 34°17' E 134°34'917.3
2018-Jul-18 15:00N 34°21' E 134°25'  
2018-Jul-16 05:23N 34°24' E 133°55'1413.9
2018-Jul-16 04:21N 34°25' E 134°13'617.3
2018-Jul-16 04:01N 34°22' E 134°19'917.7
2018-Jul-16 03:31N 34°19' E 134°29'1316.4
2018-Jul-16 02:44N 34°12' E 134°42'416.8
2018-Jul-16 02:29N 34°09' E 134°45'817.6
2018-Jul-16 02:00N 34°02' E 134°51'917.4
2018-Jul-16 01:30N 33°55' E 134°58'1417.9
2018-Jul-16 00:42N 33°45' E 135°09'22315.7
2018-Jul-15 10:32N 34°54' E 139°25'115.1
2018-Jul-15 10:30N 34°55' E 139°26'714.7
2018-Jul-15 10:00N 34°60' E 139°32'816.3
2018-Jul-15 09:30N 35°05' E 139°40'816.0
2018-Jul-15 09:00N 35°11' E 139°45'612.3
2018-Jul-15 08:30N 35°18' E 139°44'713.9
2018-Jul-15 08:01N 35°24' E 139°43'815.9
2018-Jul-15 07:30N 35°29' E 139°51'816.1
2018-Jul-15 06:59N 35°34' E 139°59'612.6
2018-Jul-15 06:30N 35°36' E 140°06'0 0.1
2018-Jul-15 05:54N 35°36' E 140°06'0 1.1
2018-Jul-15 05:30N 35°35' E 140°06'1 0.2
2018-Jul-14 23:10N 35°37' E 140°05'1 0.1
2018-Jul-14 11:26N 35°36' E 140°06'512.1
2018-Jul-14 11:00N 35°33' E 140°00'917.2
2018-Jul-14 10:30N 35°28' E 139°52'715.0
2018-Jul-14 10:00N 35°23' E 139°46'611.8
2018-Jul-14 09:30N 35°17' E 139°46'713.9
2018-Jul-14 09:00N 35°10' E 139°46'918.1
2018-Jul-14 08:30N 35°03' E 139°40'1019.7
2018-Jul-14 08:00N 34°56' E 139°30'4119.3
2018-Jul-14 05:52N 34°31' E 138°51'18716.4
2018-Jul-13 18:24N 33°37' E 135°14'717.6
2018-Jul-13 18:00N 33°42' E 135°09'918.4
2018-Jul-13 17:30N 33°49' E 135°01'918.1
2018-Jul-13 17:00N 33°56' E 134°55'918.0
2018-Jul-13 16:30N 34°04' E 134°49'918.5
2018-Jul-13 16:00N 34°11' E 134°42'918.7
2018-Jul-13 15:30N 34°17' E 134°33'918.2
2018-Jul-13 15:01N 34°21' E 134°23'917.2
2018-Jul-13 14:31N 34°24' E 134°14'1 0.0
2018-Jul-12 05:31N 34°24' E 134°14'015.0
2018-Jul-12 05:31N 34°24' E 134°14'816.6
2018-Jul-12 05:01N 34°21' E 134°23'917.4
2018-Jul-12 04:30N 34°17' E 134°33'815.5
2018-Jul-12 04:00N 34°13' E 134°41'913.7
2018-Jul-12 03:22N 34°06' E 134°47'617.3
2018-Jul-12 03:00N 34°01' E 134°52'917.1
2018-Jul-12 02:30N 33°54' E 134°58'816.5
2018-Jul-12 02:00N 33°48' E 135°05'22215.8
2018-Jul-11 11:56N 34°52' E 139°22'614.7
2018-Jul-11 11:30N 34°56' E 139°28'815.6
2018-Jul-11 11:00N 35°01' E 139°36'917.7
2018-Jul-11 10:30N 35°07' E 139°43'815.9
2018-Jul-11 10:00N 35°14' E 139°46'612.8
2018-Jul-11 09:31N 35°20' E 139°43'815.8
2018-Jul-11 09:01N 35°27' E 139°47'917.6
2018-Jul-11 08:31N 35°32' E 139°56'9 4.3
2018-Jul-11 06:27N 35°36' E 140°06'0 0.0
2018-Jul-10 20:24N 35°36' E 140°06'411.3
2018-Jul-10 20:00N 35°34' E 140°01'917.2
2018-Jul-10 19:30N 35°29' E 139°53'815.3
2018-Jul-10 19:00N 35°23' E 139°46'611.5
2018-Jul-10 18:30N 35°18' E 139°45'612.2
2018-Jul-10 18:00N 35°12' E 139°47'917.4
2018-Jul-10 17:30N 35°03' E 139°44'917.7
2018-Jul-10 17:00N 34°57' E 139°37'1120.9
2018-Jul-10 16:30N 34°53' E 139°25'  

Dump ship's entire track history